sensor_id;sensor_type;location;lat;lon;timestamp;temperature;humidity
26212;DHT22;13951;49.516;6.094;2023-07-13T02:02:12;18.20;99.90
26212;DHT22;13951;49.516;6.094;2023-07-13T02:04:46;18.40;99.90
26212;DHT22;13951;49.516;6.094;2023-07-13T02:07:20;18.40;99.90
26212;DHT22;13951;49.516;6.094;2023-07-13T02:09:55;18.40;99.90
26212;DHT22;13951;49.516;6.094;2023-07-13T02:12:29;18.40;99.90
26212;DHT22;13951;49.516;6.094;2023-07-13T02:15:04;18.50;99.90
26212;DHT22;13951;49.516;6.094;2023-07-13T02:17:38;18.50;99.90
26212;DHT22;13951;49.516;6.094;2023-07-13T02:20:12;18.50;99.90
26212;DHT22;13951;49.516;6.094;2023-07-13T02:22:45;18.50;99.90
26212;DHT22;13951;49.516;6.094;2023-07-13T02:25:19;18.40;99.90
26212;DHT22;13951;49.516;6.094;2023-07-13T02:27:55;18.40;99.90
26212;DHT22;13951;49.516;6.094;2023-07-13T02:30:29;18.50;99.90
26212;DHT22;13951;49.516;6.094;2023-07-13T02:33:05;18.50;99.90
26212;DHT22;13951;49.516;6.094;2023-07-13T02:35:40;18.50;99.90
26212;DHT22;13951;49.516;6.094;2023-07-13T02:38:14;18.50;99.90
26212;DHT22;13951;49.516;6.094;2023-07-13T02:40:52;18.50;99.90
26212;DHT22;13951;49.516;6.094;2023-07-13T02:43:27;18.50;99.90
26212;DHT22;13951;49.516;6.094;2023-07-13T02:46:02;18.60;99.90
26212;DHT22;13951;49.516;6.094;2023-07-13T02:48:41;18.60;99.90
26212;DHT22;13951;49.516;6.094;2023-07-13T02:51:15;18.60;99.90
26212;DHT22;13951;49.516;6.094;2023-07-13T02:53:51;18.60;99.90
26212;DHT22;13951;49.516;6.094;2023-07-13T02:56:27;18.70;99.90
26212;DHT22;13951;49.516;6.094;2023-07-13T02:59:01;18.70;99.90
26212;DHT22;13951;49.516;6.094;2023-07-13T03:01:37;18.70;99.90
26212;DHT22;13951;49.516;6.094;2023-07-13T03:04:11;18.70;99.90
26212;DHT22;13951;49.516;6.094;2023-07-13T03:06:46;18.70;99.90
26212;DHT22;13951;49.516;6.094;2023-07-13T03:09:21;18.70;99.90
26212;DHT22;13951;49.516;6.094;2023-07-13T03:11:58;18.70;99.90
26212;DHT22;13951;49.516;6.094;2023-07-13T03:14:34;18.70;99.90
26212;DHT22;13951;49.516;6.094;2023-07-13T03:17:11;18.70;99.90
26212;DHT22;13951;49.516;6.094;2023-07-13T03:19:46;18.70;99.90
26212;DHT22;13951;49.516;6.094;2023-07-13T03:22:23;18.70;99.90
26212;DHT22;13951;49.516;6.094;2023-07-13T03:25:10;18.80;99.90
26212;DHT22;13951;49.516;6.094;2023-07-13T03:27:44;18.80;99.90
26212;DHT22;13951;49.516;6.094;2023-07-13T03:30:17;18.70;99.90
26212;DHT22;13951;49.516;6.094;2023-07-13T03:32:51;18.70;99.90
26212;DHT22;13951;49.516;6.094;2023-07-13T03:35:25;18.70;99.90
26212;DHT22;13951;49.516;6.094;2023-07-13T03:37:59;18.80;99.90
26212;DHT22;13951;49.516;6.094;2023-07-13T03:40:34;18.80;99.90
26212;DHT22;13951;49.516;6.094;2023-07-13T03:43:08;18.70;99.90
26212;DHT22;13951;49.516;6.094;2023-07-13T03:45:41;18.80;99.90
26212;DHT22;13951;49.516;6.094;2023-07-13T03:48:15;18.80;99.90
26212;DHT22;13951;49.516;6.094;2023-07-13T03:50:48;18.80;99.90
26212;DHT22;13951;49.516;6.094;2023-07-13T03:53:25;18.80;99.90
26212;DHT22;13951;49.516;6.094;2023-07-13T03:55:59;18.80;99.90
26212;DHT22;13951;49.516;6.094;2023-07-13T03:58:40;18.80;99.90
26212;DHT22;13951;49.516;6.094;2023-07-13T04:01:20;18.80;99.90
26212;DHT22;13951;49.516;6.094;2023-07-13T04:03:54;18.80;99.90
26212;DHT22;13951;49.516;6.094;2023-07-13T04:06:30;18.80;99.90
26212;DHT22;13951;49.516;6.094;2023-07-13T04:09:04;18.70;99.90
26212;DHT22;13951;49.516;6.094;2023-07-13T04:11:42;18.70;99.90
26212;DHT22;13951;49.516;6.094;2023-07-13T04:14:15;18.70;99.90
26212;DHT22;13951;49.516;6.094;2023-07-13T04:16:51;18.70;99.90
26212;DHT22;13951;49.516;6.094;2023-07-13T04:19:25;18.70;99.90
26212;DHT22;13951;49.516;6.094;2023-07-13T04:21:58;18.70;99.90
26212;DHT22;13951;49.516;6.094;2023-07-13T04:24:32;18.70;99.90
26212;DHT22;13951;49.516;6.094;2023-07-13T04:27:07;18.70;99.90
26212;DHT22;13951;49.516;6.094;2023-07-13T04:29:41;18.70;99.90
26212;DHT22;13951;49.516;6.094;2023-07-13T04:32:15;18.70;99.90
26212;DHT22;13951;49.516;6.094;2023-07-13T04:34:48;18.70;99.90
26212;DHT22;13951;49.516;6.094;2023-07-13T04:37:26;18.70;99.90
26212;DHT22;13951;49.516;6.094;2023-07-13T04:40:00;18.70;99.90
26212;DHT22;13951;49.516;6.094;2023-07-13T04:42:33;18.70;99.90
26212;DHT22;13951;49.516;6.094;2023-07-13T04:45:08;18.70;99.90
26212;DHT22;13951;49.516;6.094;2023-07-13T04:47:44;18.80;99.90
26212;DHT22;13951;49.516;6.094;2023-07-13T04:50:21;18.80;99.90
26212;DHT22;13951;49.516;6.094;2023-07-13T04:52:56;18.90;99.90
26212;DHT22;13951;49.516;6.094;2023-07-13T04:55:29;18.90;99.90
26212;DHT22;13951;49.516;6.094;2023-07-13T04:58:03;19.00;99.90
26212;DHT22;13951;49.516;6.094;2023-07-13T05:00:40;19.00;99.90
26212;DHT22;13951;49.516;6.094;2023-07-13T05:03:37;19.00;99.90
26212;DHT22;13951;49.516;6.094;2023-07-13T05:06:11;19.00;99.90
26212;DHT22;13951;49.516;6.094;2023-07-13T05:08:44;19.10;99.90
26212;DHT22;13951;49.516;6.094;2023-07-13T05:11:18;19.10;99.90
26212;DHT22;13951;49.516;6.094;2023-07-13T05:13:53;19.10;99.90
26212;DHT22;13951;49.516;6.094;2023-07-13T05:16:27;19.20;99.90
26212;DHT22;13951;49.516;6.094;2023-07-13T05:19:00;19.20;99.90
26212;DHT22;13951;49.516;6.094;2023-07-13T05:21:34;19.30;99.90
26212;DHT22;13951;49.516;6.094;2023-07-13T05:24:08;19.30;99.90
26212;DHT22;13951;49.516;6.094;2023-07-13T05:26:56;19.40;99.90
26212;DHT22;13951;49.516;6.094;2023-07-13T05:29:29;19.50;99.90
26212;DHT22;13951;49.516;6.094;2023-07-13T05:32:03;19.50;99.90
26212;DHT22;13951;49.516;6.094;2023-07-13T05:34:36;19.70;99.90
26212;DHT22;13951;49.516;6.094;2023-07-13T05:37:10;19.80;99.90
26212;DHT22;13951;49.516;6.094;2023-07-13T05:39:43;19.80;99.90
26212;DHT22;13951;49.516;6.094;2023-07-13T05:42:16;19.80;99.90
26212;DHT22;13951;49.516;6.094;2023-07-13T05:44:49;19.80;99.90
26212;DHT22;13951;49.516;6.094;2023-07-13T05:47:23;19.90;99.90
26212;DHT22;13951;49.516;6.094;2023-07-13T05:49:56;20.00;99.90
26212;DHT22;13951;49.516;6.094;2023-07-13T05:52:30;20.10;99.90
26212;DHT22;13951;49.516;6.094;2023-07-13T05:55:03;20.10;99.90
26212;DHT22;13951;49.516;6.094;2023-07-13T05:57:37;20.20;99.90
26212;DHT22;13951;49.516;6.094;2023-07-13T06:00:10;20.30;99.90
26212;DHT22;13951;49.516;6.094;2023-07-13T06:02:43;20.40;99.90
26212;DHT22;13951;49.516;6.094;2023-07-13T06:05:17;20.50;99.90
26212;DHT22;13951;49.516;6.094;2023-07-13T06:07:50;20.70;99.90
26212;DHT22;13951;49.516;6.094;2023-07-13T06:10:23;20.90;99.90
26212;DHT22;13951;49.516;6.094;2023-07-13T06:12:57;21.10;99.90
26212;DHT22;13951;49.516;6.094;2023-07-13T06:15:30;21.20;99.90
26212;DHT22;13951;49.516;6.094;2023-07-13T06:18:03;21.50;99.90
26212;DHT22;13951;49.516;6.094;2023-07-13T06:20:39;21.70;99.90
26212;DHT22;13951;49.516;6.094;2023-07-13T06:23:12;21.90;99.90
26212;DHT22;13951;49.516;6.094;2023-07-13T06:25:45;22.10;99.90
26212;DHT22;13951;49.516;6.094;2023-07-13T06:28:19;22.30;99.90
26212;DHT22;13951;49.516;6.094;2023-07-13T06:30:52;22.30;99.90
26212;DHT22;13951;49.516;6.094;2023-07-13T06:33:25;22.30;99.90
26212;DHT22;13951;49.516;6.094;2023-07-13T06:35:58;22.30;99.90
26212;DHT22;13951;49.516;6.094;2023-07-13T06:38:32;22.20;99.90
26212;DHT22;13951;49.516;6.094;2023-07-13T06:41:07;22.20;99.90
26212;DHT22;13951;49.516;6.094;2023-07-13T06:43:41;22.10;99.90
26212;DHT22;13951;49.516;6.094;2023-07-13T06:46:14;22.00;99.90
26212;DHT22;13951;49.516;6.094;2023-07-13T06:48:47;22.00;99.90
26212;DHT22;13951;49.516;6.094;2023-07-13T06:51:22;21.90;99.90
26212;DHT22;13951;49.516;6.094;2023-07-13T06:53:55;22.00;99.90
26212;DHT22;13951;49.516;6.094;2023-07-13T06:56:28;22.10;99.90
26212;DHT22;13951;49.516;6.094;2023-07-13T06:59:02;22.10;99.90
26212;DHT22;13951;49.516;6.094;2023-07-13T07:01:35;22.10;99.90
26212;DHT22;13951;49.516;6.094;2023-07-13T07:04:09;22.10;99.90
26212;DHT22;13951;49.516;6.094;2023-07-13T07:06:42;22.30;99.90
26212;DHT22;13951;49.516;6.094;2023-07-13T07:09:16;22.30;99.50
26212;DHT22;13951;49.516;6.094;2023-07-13T07:11:50;22.40;99.30
26212;DHT22;13951;49.516;6.094;2023-07-13T07:14:35;22.60;99.70
26212;DHT22;13951;49.516;6.094;2023-07-13T07:17:08;22.70;98.70
26212;DHT22;13951;49.516;6.094;2023-07-13T07:19:41;22.70;99.00
26212;DHT22;13951;49.516;6.094;2023-07-13T07:22:15;22.90;98.60
26212;DHT22;13951;49.516;6.094;2023-07-13T07:24:48;23.10;98.20
26212;DHT22;13951;49.516;6.094;2023-07-13T07:27:21;23.30;97.90
26212;DHT22;13951;49.516;6.094;2023-07-13T07:29:57;23.40;98.40
26212;DHT22;13951;49.516;6.094;2023-07-13T07:32:33;23.50;97.60
26212;DHT22;13951;49.516;6.094;2023-07-13T07:35:09;23.60;97.10
26212;DHT22;13951;49.516;6.094;2023-07-13T07:37:42;23.60;96.70
26212;DHT22;13951;49.516;6.094;2023-07-13T07:40:19;23.70;96.20
26212;DHT22;13951;49.516;6.094;2023-07-13T07:42:55;23.70;96.30
26212;DHT22;13951;49.516;6.094;2023-07-13T07:45:28;23.70;96.50
26212;DHT22;13951;49.516;6.094;2023-07-13T07:48:01;23.70;96.10
26212;DHT22;13951;49.516;6.094;2023-07-13T07:50:34;23.70;95.90
26212;DHT22;13951;49.516;6.094;2023-07-13T07:53:07;23.60;95.70
26212;DHT22;13951;49.516;6.094;2023-07-13T07:55:43;23.70;96.20
26212;DHT22;13951;49.516;6.094;2023-07-13T07:58:19;23.80;96.50
26212;DHT22;13951;49.516;6.094;2023-07-13T08:01:02;23.90;96.10
26212;DHT22;13951;49.516;6.094;2023-07-13T08:03:38;23.90;95.30
26212;DHT22;13951;49.516;6.094;2023-07-13T08:06:14;23.90;95.30
26212;DHT22;13951;49.516;6.094;2023-07-13T08:09:07;24.00;95.30
26212;DHT22;13951;49.516;6.094;2023-07-13T08:11:41;24.00;95.20
26212;DHT22;13951;49.516;6.094;2023-07-13T08:17:14;24.10;94.20
26212;DHT22;13951;49.516;6.094;2023-07-13T08:19:48;24.00;94.80
26212;DHT22;13951;49.516;6.094;2023-07-13T08:22:22;24.00;94.30
26212;DHT22;13951;49.516;6.094;2023-07-13T08:24:59;23.90;94.40
26212;DHT22;13951;49.516;6.094;2023-07-13T08:27:34;23.90;95.30
26212;DHT22;13951;49.516;6.094;2023-07-13T08:30:12;24.00;94.30
26212;DHT22;13951;49.516;6.094;2023-07-13T08:32:46;24.10;94.30
26212;DHT22;13951;49.516;6.094;2023-07-13T08:35:20;24.10;95.20
26212;DHT22;13951;49.516;6.094;2023-07-13T08:37:54;24.10;94.10
26212;DHT22;13951;49.516;6.094;2023-07-13T08:40:27;24.10;94.60
26212;DHT22;13951;49.516;6.094;2023-07-13T08:43:01;24.10;94.00
26212;DHT22;13951;49.516;6.094;2023-07-13T08:45:38;24.10;93.50
26212;DHT22;13951;49.516;6.094;2023-07-13T08:48:43;24.10;93.90
26212;DHT22;13951;49.516;6.094;2023-07-13T08:51:44;24.00;93.50
26212;DHT22;13951;49.516;6.094;2023-07-13T08:54:30;24.00;93.60
26212;DHT22;13951;49.516;6.094;2023-07-13T08:57:18;24.00;93.80
26212;DHT22;13951;49.516;6.094;2023-07-13T08:59:55;24.00;94.10
26212;DHT22;13951;49.516;6.094;2023-07-13T09:02:57;24.10;94.10
26212;DHT22;13951;49.516;6.094;2023-07-13T09:05:38;24.10;93.90
26212;DHT22;13951;49.516;6.094;2023-07-13T09:11:42;24.20;93.80
26212;DHT22;13951;49.516;6.094;2023-07-13T09:14:47;24.30;93.50
26212;DHT22;13951;49.516;6.094;2023-07-13T09:17:29;24.20;94.20
26212;DHT22;13951;49.516;6.094;2023-07-13T09:22:51;24.20;94.00
26212;DHT22;13951;49.516;6.094;2023-07-13T09:25:35;24.30;93.40
26212;DHT22;13951;49.516;6.094;2023-07-13T09:28:22;24.40;93.80
26212;DHT22;13951;49.516;6.094;2023-07-13T09:33:36;24.70;92.60
26212;DHT22;13951;49.516;6.094;2023-07-13T09:36:26;24.70;91.60
26212;DHT22;13951;49.516;6.094;2023-07-13T09:39:02;24.90;92.50
26212;DHT22;13951;49.516;6.094;2023-07-13T09:41:54;25.10;92.80
26212;DHT22;13951;49.516;6.094;2023-07-13T09:44:34;25.10;92.40
26212;DHT22;13951;49.516;6.094;2023-07-13T09:47:17;25.20;91.90
26212;DHT22;13951;49.516;6.094;2023-07-13T09:49:56;25.30;91.30
26212;DHT22;13951;49.516;6.094;2023-07-13T09:52:46;25.40;92.00
26212;DHT22;13951;49.516;6.094;2023-07-13T09:58:24;25.70;91.00
26212;DHT22;13951;49.516;6.094;2023-07-13T10:01:02;25.80;91.10
26212;DHT22;13951;49.516;6.094;2023-07-13T10:03:40;25.90;90.10
26212;DHT22;13951;49.516;6.094;2023-07-13T10:06:24;26.00;90.50
26212;DHT22;13951;49.516;6.094;2023-07-13T10:08:59;25.90;90.20
26212;DHT22;13951;49.516;6.094;2023-07-13T10:11:35;26.00;90.10
26212;DHT22;13951;49.516;6.094;2023-07-13T10:16:56;26.30;90.10
26212;DHT22;13951;49.516;6.094;2023-07-13T10:19:34;26.50;89.70
26212;DHT22;13951;49.516;6.094;2023-07-13T10:22:42;26.70;89.10
26212;DHT22;13951;49.516;6.094;2023-07-13T10:25:22;26.80;87.10
26212;DHT22;13951;49.516;6.094;2023-07-13T10:28:04;27.00;88.00
26212;DHT22;13951;49.516;6.094;2023-07-13T10:30:41;27.10;85.30
26212;DHT22;13951;49.516;6.094;2023-07-13T10:33:15;27.10;83.60
26212;DHT22;13951;49.516;6.094;2023-07-13T10:35:50;26.90;84.60
26212;DHT22;13951;49.516;6.094;2023-07-13T10:38:25;26.80;84.80
26212;DHT22;13951;49.516;6.094;2023-07-13T10:41:07;27.00;86.40
26212;DHT22;13951;49.516;6.094;2023-07-13T10:43:46;27.10;87.30
26212;DHT22;13951;49.516;6.094;2023-07-13T10:46:24;27.10;84.00
26212;DHT22;13951;49.516;6.094;2023-07-13T10:49:04;27.00;80.90
26212;DHT22;13951;49.516;6.094;2023-07-13T10:51:39;26.70;84.70
26212;DHT22;13951;49.516;6.094;2023-07-13T10:54:21;26.40;84.50
26212;DHT22;13951;49.516;6.094;2023-07-13T11:00:14;26.30;87.30
26212;DHT22;13951;49.516;6.094;2023-07-13T11:02:58;26.30;85.70
26212;DHT22;13951;49.516;6.094;2023-07-13T11:05:34;26.30;84.30
26212;DHT22;13951;49.516;6.094;2023-07-13T11:08:32;26.40;83.90
26212;DHT22;13951;49.516;6.094;2023-07-13T11:14:01;26.20;84.60
26212;DHT22;13951;49.516;6.094;2023-07-13T11:16:44;26.30;83.00
26212;DHT22;13951;49.516;6.094;2023-07-13T11:25:00;26.30;84.20
26212;DHT22;13951;49.516;6.094;2023-07-13T11:27:43;26.20;82.10
26212;DHT22;13951;49.516;6.094;2023-07-13T11:36:00;26.20;81.30
26212;DHT22;13951;49.516;6.094;2023-07-13T11:39:10;26.10;81.30
26212;DHT22;13951;49.516;6.094;2023-07-13T11:41:53;26.00;82.10
26212;DHT22;13951;49.516;6.094;2023-07-13T11:44:32;26.00;82.70
26212;DHT22;13951;49.516;6.094;2023-07-13T11:47:10;26.00;81.30
26212;DHT22;13951;49.516;6.094;2023-07-13T11:49:47;25.90;85.40
26212;DHT22;13951;49.516;6.094;2023-07-13T11:52:25;25.90;86.30
26212;DHT22;13951;49.516;6.094;2023-07-13T11:55:03;25.90;83.50
26212;DHT22;13951;49.516;6.094;2023-07-13T11:57:51;25.80;84.70
26212;DHT22;13951;49.516;6.094;2023-07-13T12:00:34;25.80;84.80
26212;DHT22;13951;49.516;6.094;2023-07-13T12:03:11;25.80;85.20
26212;DHT22;13951;49.516;6.094;2023-07-13T12:06:04;25.80;87.50
26212;DHT22;13951;49.516;6.094;2023-07-13T12:08:39;25.90;86.90
26212;DHT22;13951;49.516;6.094;2023-07-13T12:11:17;25.90;86.70
26212;DHT22;13951;49.516;6.094;2023-07-13T12:13:50;25.80;85.30
26212;DHT22;13951;49.516;6.094;2023-07-13T12:16:31;25.80;84.50
26212;DHT22;13951;49.516;6.094;2023-07-13T12:19:20;25.70;83.70
26212;DHT22;13951;49.516;6.094;2023-07-13T12:21:56;25.70;84.60
26212;DHT22;13951;49.516;6.094;2023-07-13T12:24:34;25.70;83.40
26212;DHT22;13951;49.516;6.094;2023-07-13T12:27:26;25.80;82.80
26212;DHT22;13951;49.516;6.094;2023-07-13T12:30:04;26.00;80.60
26212;DHT22;13951;49.516;6.094;2023-07-13T12:32:38;26.00;82.60
26212;DHT22;13951;49.516;6.094;2023-07-13T12:35:17;26.00;82.60
26212;DHT22;13951;49.516;6.094;2023-07-13T12:37:57;25.90;84.80
26212;DHT22;13951;49.516;6.094;2023-07-13T12:40:34;25.70;83.50
26212;DHT22;13951;49.516;6.094;2023-07-13T12:43:12;25.50;84.80
26212;DHT22;13951;49.516;6.094;2023-07-13T12:45:59;25.20;85.70
26212;DHT22;13951;49.516;6.094;2023-07-13T12:48:41;25.00;87.40
26212;DHT22;13951;49.516;6.094;2023-07-13T12:51:24;24.80;88.40
26212;DHT22;13951;49.516;6.094;2023-07-13T12:54:07;24.60;88.60
26212;DHT22;13951;49.516;6.094;2023-07-13T12:56:49;24.50;88.50
26212;DHT22;13951;49.516;6.094;2023-07-13T12:59:29;24.50;90.70
26212;DHT22;13951;49.516;6.094;2023-07-13T13:04:56;24.60;90.30
26212;DHT22;13951;49.516;6.094;2023-07-13T13:07:30;24.70;90.60
26212;DHT22;13951;49.516;6.094;2023-07-13T13:10:11;24.80;90.20
26212;DHT22;13951;49.516;6.094;2023-07-13T13:12:45;24.80;90.10
26212;DHT22;13951;49.516;6.094;2023-07-13T13:15:20;24.90;88.80
26212;DHT22;13951;49.516;6.094;2023-07-13T13:17:55;24.90;89.00
26212;DHT22;13951;49.516;6.094;2023-07-13T13:20:31;24.80;89.40
26212;DHT22;13951;49.516;6.094;2023-07-13T13:23:14;24.90;90.60
26212;DHT22;13951;49.516;6.094;2023-07-13T13:25:50;24.90;90.10
26212;DHT22;13951;49.516;6.094;2023-07-13T13:28:23;25.00;89.40
26212;DHT22;13951;49.516;6.094;2023-07-13T13:30:57;25.00;90.00
26212;DHT22;13951;49.516;6.094;2023-07-13T13:33:33;25.00;90.20
26212;DHT22;13951;49.516;6.094;2023-07-13T13:36:21;25.00;89.50
26212;DHT22;13951;49.516;6.094;2023-07-13T13:38:55;25.00;90.20
26212;DHT22;13951;49.516;6.094;2023-07-13T13:41:28;25.10;90.90
26212;DHT22;13951;49.516;6.094;2023-07-13T13:44:01;25.00;90.10
26212;DHT22;13951;49.516;6.094;2023-07-13T13:46:38;25.10;90.50
26212;DHT22;13951;49.516;6.094;2023-07-13T13:49:15;25.10;90.50
26212;DHT22;13951;49.516;6.094;2023-07-13T13:51:49;25.10;90.60
26212;DHT22;13951;49.516;6.094;2023-07-13T13:54:24;25.10;90.40
26212;DHT22;13951;49.516;6.094;2023-07-13T13:56:58;25.10;90.80
26212;DHT22;13951;49.516;6.094;2023-07-13T13:59:32;25.20;90.00
26212;DHT22;13951;49.516;6.094;2023-07-13T14:02:28;25.20;88.00
26212;DHT22;13951;49.516;6.094;2023-07-13T14:05:03;25.20;89.40
26212;DHT22;13951;49.516;6.094;2023-07-13T14:07:36;25.20;88.80
26212;DHT22;13951;49.516;6.094;2023-07-13T14:10:12;25.30;90.00
26212;DHT22;13951;49.516;6.094;2023-07-13T14:12:51;25.40;87.50
26212;DHT22;13951;49.516;6.094;2023-07-13T14:15:27;25.50;89.00
26212;DHT22;13951;49.516;6.094;2023-07-13T14:18:01;25.50;87.20
26212;DHT22;13951;49.516;6.094;2023-07-13T14:20:35;25.40;87.20
26212;DHT22;13951;49.516;6.094;2023-07-13T14:23:09;25.50;87.60
26212;DHT22;13951;49.516;6.094;2023-07-13T14:25:42;25.40;87.10
26212;DHT22;13951;49.516;6.094;2023-07-13T14:28:25;25.40;86.10
26212;DHT22;13951;49.516;6.094;2023-07-13T14:30:59;25.40;87.20
26212;DHT22;13951;49.516;6.094;2023-07-13T14:33:32;25.40;86.00
26212;DHT22;13951;49.516;6.094;2023-07-13T14:39:11;25.40;85.60
26212;DHT22;13951;49.516;6.094;2023-07-13T14:41:45;25.30;86.10
26212;DHT22;13951;49.516;6.094;2023-07-13T14:44:25;25.20;85.00
26212;DHT22;13951;49.516;6.094;2023-07-13T14:47:04;25.20;87.70
26212;DHT22;13951;49.516;6.094;2023-07-13T14:49:40;25.20;88.30
26212;DHT22;13951;49.516;6.094;2023-07-13T14:52:23;25.30;87.10
26212;DHT22;13951;49.516;6.094;2023-07-13T14:54:59;25.30;88.70
26212;DHT22;13951;49.516;6.094;2023-07-13T14:57:33;25.30;89.00
26212;DHT22;13951;49.516;6.094;2023-07-13T15:00:14;25.40;86.10
26212;DHT22;13951;49.516;6.094;2023-07-13T15:02:50;25.30;86.80
26212;DHT22;13951;49.516;6.094;2023-07-13T15:05:27;25.20;86.40
26212;DHT22;13951;49.516;6.094;2023-07-13T15:08:03;25.20;86.50
26212;DHT22;13951;49.516;6.094;2023-07-13T15:10:37;25.10;84.90
26212;DHT22;13951;49.516;6.094;2023-07-13T15:15:49;25.10;86.60
26212;DHT22;13951;49.516;6.094;2023-07-13T15:18:23;25.20;87.70
26212;DHT22;13951;49.516;6.094;2023-07-13T15:20:58;25.10;86.20
26212;DHT22;13951;49.516;6.094;2023-07-13T15:23:35;25.10;86.10
26212;DHT22;13951;49.516;6.094;2023-07-13T15:26:12;25.10;85.40
26212;DHT22;13951;49.516;6.094;2023-07-13T15:28:47;25.00;86.10
26212;DHT22;13951;49.516;6.094;2023-07-13T15:31:22;25.00;88.60
26212;DHT22;13951;49.516;6.094;2023-07-13T15:33:58;25.10;88.50
26212;DHT22;13951;49.516;6.094;2023-07-13T15:36:31;25.10;88.00
26212;DHT22;13951;49.516;6.094;2023-07-13T15:39:06;25.10;86.10
26212;DHT22;13951;49.516;6.094;2023-07-13T15:41:40;25.10;88.40
26212;DHT22;13951;49.516;6.094;2023-07-13T15:44:29;25.10;86.20
26212;DHT22;13951;49.516;6.094;2023-07-13T15:47:03;25.10;86.80
26212;DHT22;13951;49.516;6.094;2023-07-13T15:49:38;25.10;84.90
26212;DHT22;13951;49.516;6.094;2023-07-13T15:52:17;25.10;85.60
26212;DHT22;13951;49.516;6.094;2023-07-13T15:54:52;25.10;86.80
26212;DHT22;13951;49.516;6.094;2023-07-13T15:57:25;25.10;88.90
26212;DHT22;13951;49.516;6.094;2023-07-13T15:59:58;25.10;85.80
26212;DHT22;13951;49.516;6.094;2023-07-13T16:02:32;25.00;87.20
26212;DHT22;13951;49.516;6.094;2023-07-13T16:05:06;25.00;86.80
26212;DHT22;13951;49.516;6.094;2023-07-13T16:07:39;25.00;88.50
26212;DHT22;13951;49.516;6.094;2023-07-13T16:10:20;25.00;87.10
26212;DHT22;13951;49.516;6.094;2023-07-13T16:12:54;24.90;88.60
26212;DHT22;13951;49.516;6.094;2023-07-13T16:15:28;24.90;85.10
26212;DHT22;13951;49.516;6.094;2023-07-13T16:18:02;24.80;86.40
26212;DHT22;13951;49.516;6.094;2023-07-13T16:20:38;24.80;88.20
26212;DHT22;13951;49.516;6.094;2023-07-13T16:32:40;24.70;88.50
26212;DHT22;13951;49.516;6.094;2023-07-13T16:45:02;24.50;88.30
26212;DHT22;13951;49.516;6.094;2023-07-13T16:47:36;24.50;88.40
26212;DHT22;13951;49.516;6.094;2023-07-13T16:50:15;24.40;89.30
26212;DHT22;13951;49.516;6.094;2023-07-13T16:52:53;24.40;88.80
26212;DHT22;13951;49.516;6.094;2023-07-13T16:55:27;24.30;89.30
26212;DHT22;13951;49.516;6.094;2023-07-13T16:58:02;24.30;90.10
26212;DHT22;13951;49.516;6.094;2023-07-13T17:00:38;24.30;88.40
26212;DHT22;13951;49.516;6.094;2023-07-13T17:03:12;24.20;89.70
26212;DHT22;13951;49.516;6.094;2023-07-13T17:05:46;24.20;89.70
26212;DHT22;13951;49.516;6.094;2023-07-13T17:08:24;24.20;90.30
26212;DHT22;13951;49.516;6.094;2023-07-13T17:11:00;24.20;88.20
26212;DHT22;13951;49.516;6.094;2023-07-13T17:13:34;24.20;87.20
26212;DHT22;13951;49.516;6.094;2023-07-13T17:16:09;24.20;89.80
26212;DHT22;13951;49.516;6.094;2023-07-13T17:18:42;24.20;89.00
26212;DHT22;13951;49.516;6.094;2023-07-13T17:21:16;24.20;89.40
26212;DHT22;13951;49.516;6.094;2023-07-13T17:23:49;24.30;88.90
26212;DHT22;13951;49.516;6.094;2023-07-13T17:26:25;24.30;89.60
26212;DHT22;13951;49.516;6.094;2023-07-13T17:28:58;24.20;88.50
26212;DHT22;13951;49.516;6.094;2023-07-13T17:31:31;24.20;89.60
26212;DHT22;13951;49.516;6.094;2023-07-13T17:34:12;24.20;90.00
26212;DHT22;13951;49.516;6.094;2023-07-13T17:36:47;24.20;89.20
26212;DHT22;13951;49.516;6.094;2023-07-13T17:39:20;24.20;90.00
26212;DHT22;13951;49.516;6.094;2023-07-13T17:41:54;24.20;88.30
26212;DHT22;13951;49.516;6.094;2023-07-13T17:44:27;24.20;90.00
26212;DHT22;13951;49.516;6.094;2023-07-13T17:47:00;24.20;90.40
26212;DHT22;13951;49.516;6.094;2023-07-13T17:49:38;24.20;89.10
26212;DHT22;13951;49.516;6.094;2023-07-13T17:52:11;24.10;88.90
26212;DHT22;13951;49.516;6.094;2023-07-13T17:54:44;24.10;89.30
26212;DHT22;13951;49.516;6.094;2023-07-13T17:57:17;24.00;88.10
26212;DHT22;13951;49.516;6.094;2023-07-13T17:59:50;24.00;88.50
26212;DHT22;13951;49.516;6.094;2023-07-13T18:02:23;24.00;90.20
26212;DHT22;13951;49.516;6.094;2023-07-13T18:04:58;23.90;89.90
26212;DHT22;13951;49.516;6.094;2023-07-13T18:07:32;23.90;90.00
26212;DHT22;13951;49.516;6.094;2023-07-13T18:10:13;23.90;90.00
26212;DHT22;13951;49.516;6.094;2023-07-13T18:12:47;23.80;90.30
26212;DHT22;13951;49.516;6.094;2023-07-13T18:15:23;23.80;90.80
26212;DHT22;13951;49.516;6.094;2023-07-13T18:17:58;23.80;90.80
26212;DHT22;13951;49.516;6.094;2023-07-13T18:20:32;23.80;91.10
26212;DHT22;13951;49.516;6.094;2023-07-13T18:23:20;23.70;91.30
26212;DHT22;13951;49.516;6.094;2023-07-13T18:25:53;23.70;91.30
26212;DHT22;13951;49.516;6.094;2023-07-13T18:28:27;23.70;90.90
26212;DHT22;13951;49.516;6.094;2023-07-13T18:31:00;23.70;91.60
26212;DHT22;13951;49.516;6.094;2023-07-13T18:33:35;23.60;91.00
26212;DHT22;13951;49.516;6.094;2023-07-13T18:36:11;23.60;91.30
26212;DHT22;13951;49.516;6.094;2023-07-13T18:38:47;23.60;91.40
26212;DHT22;13951;49.516;6.094;2023-07-13T18:41:21;23.60;91.50
26212;DHT22;13951;49.516;6.094;2023-07-13T18:43:55;23.50;92.10
26212;DHT22;13951;49.516;6.094;2023-07-13T18:46:31;23.50;91.90
26212;DHT22;13951;49.516;6.094;2023-07-13T18:49:08;23.50;91.80
26212;DHT22;13951;49.516;6.094;2023-07-13T18:51:42;23.50;91.40
26212;DHT22;13951;49.516;6.094;2023-07-13T18:54:15;23.40;92.10
26212;DHT22;13951;49.516;6.094;2023-07-13T18:56:49;23.40;92.20
26212;DHT22;13951;49.516;6.094;2023-07-13T18:59:22;23.40;91.20
26212;DHT22;13951;49.516;6.094;2023-07-13T19:02:34;23.30;91.50
26212;DHT22;13951;49.516;6.094;2023-07-13T19:11:52;23.20;92.20
26212;DHT22;13951;49.516;6.094;2023-07-13T19:14:29;23.20;91.80
26212;DHT22;13951;49.516;6.094;2023-07-13T19:17:03;23.20;91.60
26212;DHT22;13951;49.516;6.094;2023-07-13T19:19:36;23.10;92.30
26212;DHT22;13951;49.516;6.094;2023-07-13T19:22:15;23.10;91.90
26212;DHT22;13951;49.516;6.094;2023-07-13T19:24:49;23.10;92.00
26212;DHT22;13951;49.516;6.094;2023-07-13T19:27:23;23.00;92.00
26212;DHT22;13951;49.516;6.094;2023-07-13T19:29:57;23.00;92.40
26212;DHT22;13951;49.516;6.094;2023-07-13T19:32:31;23.00;92.20
26212;DHT22;13951;49.516;6.094;2023-07-13T19:35:04;22.90;92.80
26212;DHT22;13951;49.516;6.094;2023-07-13T19:37:39;22.80;93.00
26212;DHT22;13951;49.516;6.094;2023-07-13T19:40:19;22.80;92.70